createdAt,value
2023-03-15T00:00:06.394Z,101672.63
2023-03-15T00:02:52.839Z,101675.78
2023-03-15T00:05:43.347Z,101685.81
2023-03-15T00:08:29.421Z,101684.69
2023-03-15T00:11:16.205Z,101689.41
2023-03-15T00:14:03.140Z,101680.16
2023-03-15T00:16:49.648Z,101688.16
2023-03-15T00:19:36.706Z,101696.53
2023-03-15T00:22:24.553Z,101684.97
2023-03-15T00:25:11.452Z,101697.66
2023-03-15T00:27:58.118Z,101695.34
2023-03-15T00:30:45.827Z,101695.47
2023-03-15T00:33:34.813Z,101702.59
2023-03-15T00:36:23.927Z,101711.72
2023-03-15T00:39:12.395Z,101707.56
2023-03-15T00:41:59.185Z,101711.88
2023-03-15T00:44:46.240Z,101726.09
2023-03-15T00:47:33.202Z,101733.69
2023-03-15T00:50:20.173Z,101738.50
2023-03-15T00:53:06.262Z,101737.94
2023-03-15T00:55:53.706Z,101751.81
2023-03-15T00:58:40.842Z,101746.69
2023-03-15T01:01:29.373Z,101746.47
2023-03-15T01:04:15.990Z,101758.59
2023-03-15T01:07:02.143Z,101770.44
2023-03-15T01:09:48.687Z,101772.31
2023-03-15T01:12:36.883Z,101781.66
2023-03-15T01:15:23.199Z,101787.25
2023-03-15T01:18:09.318Z,101788.19
2023-03-15T01:20:55.752Z,101802.47
2023-03-15T01:23:42.541Z,101812.09
2023-03-15T01:26:29.233Z,101804.03
2023-03-15T01:29:17.879Z,101808.53
2023-03-15T01:32:04.569Z,101801.44
2023-03-15T01:34:51.552Z,101816.81
2023-03-15T01:37:37.725Z,101829.81
2023-03-15T01:40:24.304Z,101830.72
2023-03-15T01:43:20.758Z,101839.25
2023-03-15T01:46:23.413Z,101859.25
2023-03-15T01:49:14.934Z,101857.66
2023-03-15T01:52:07.751Z,101855.53
2023-03-15T01:55:14.038Z,101843.81
2023-03-15T01:58:12.932Z,101851.28
2023-03-15T02:01:02.974Z,101848.59
2023-03-15T02:03:58.775Z,101845.13
2023-03-15T02:06:50.845Z,101844.00
2023-03-15T02:09:45.295Z,101844.44
2023-03-15T02:12:33.569Z,101851.47
2023-03-15T02:15:21.674Z,101843.75
2023-03-15T02:18:08.125Z,101854.06
2023-03-15T02:21:03.451Z,101848.28
2023-03-15T02:23:57.036Z,101850.63
2023-03-15T02:26:46.463Z,101849.28
2023-03-15T02:29:34.076Z,101838.97
2023-03-15T02:32:20.536Z,101855.63
2023-03-15T02:35:09.424Z,101856.09
2023-03-15T02:37:55.735Z,101863.06
2023-03-15T02:40:42.747Z,101865.81
2023-03-15T02:43:32.011Z,101871.72
2023-03-15T02:46:20.223Z,101879.75
2023-03-15T02:49:09.951Z,101888.28
2023-03-15T02:51:56.397Z,101891.59
2023-03-15T02:54:43.815Z,101901.13
2023-03-15T02:57:31.001Z,101906.38
2023-03-15T03:00:18.650Z,101911.06
2023-03-15T03:03:06.327Z,101929.78
2023-03-15T03:05:52.540Z,101945.38
2023-03-15T03:08:39.575Z,101952.88
2023-03-15T03:11:27.730Z,101962.78
2023-03-15T03:14:16.361Z,101956.81
2023-03-15T03:17:03.198Z,101952.84
2023-03-15T03:19:51.663Z,101959.19
2023-03-15T03:22:44.760Z,101960.78
2023-03-15T03:25:31.066Z,101967.31
2023-03-15T03:28:17.178Z,101954.03
2023-03-15T03:31:03.577Z,101950.31
2023-03-15T03:33:51.144Z,101960.22
2023-03-15T03:36:38.994Z,101965.78
2023-03-15T03:39:25.719Z,101960.44
2023-03-15T03:42:12.330Z,101971.13
2023-03-15T03:44:58.490Z,101988.88
2023-03-15T03:47:51.645Z,101987.06
2023-03-15T03:50:38.132Z,102000.50
2023-03-15T03:53:26.353Z,102001.34
2023-03-15T03:56:12.801Z,102000.41
2023-03-15T03:58:59.537Z,101999.88
2023-03-15T04:01:58.357Z,101995.06
2023-03-15T04:04:45.345Z,102005.28
2023-03-15T04:07:36.764Z,102006.03
2023-03-15T04:10:26.803Z,102001.72
2023-03-15T04:13:12.887Z,102014.81
2023-03-15T04:16:01.187Z,102004.56
2023-03-15T04:18:56.551Z,102020.88
2023-03-15T04:21:47.578Z,102026.69
2023-03-15T04:24:51.374Z,102031.00
2023-03-15T04:28:03.012Z,102028.53
2023-03-15T04:31:01.800Z,102045.22
2023-03-15T04:34:17.514Z,102051.34
2023-03-15T04:37:29.870Z,102054.78
2023-03-15T04:40:42.788Z,102050.91
2023-03-15T04:43:53.877Z,102047.69
2023-03-15T04:47:12.926Z,102048.88
2023-03-15T04:50:14.374Z,102050.56
2023-03-15T04:53:39.788Z,102049.81
2023-03-15T04:56:44.856Z,102050.72
2023-03-15T04:59:50.373Z,102055.88
2023-03-15T05:03:00.511Z,102059.22
2023-03-15T05:06:07.791Z,102061.44
2023-03-15T05:09:04.181Z,102070.84
2023-03-15T05:12:06.793Z,102076.34
2023-03-15T05:15:19.278Z,102078.41
2023-03-15T05:18:38.233Z,102073.28
2023-03-15T05:21:27.750Z,102069.06
2023-03-15T05:24:26.809Z,102062.22
2023-03-15T05:27:32.669Z,102067.09
2023-03-15T05:30:32.213Z,102057.84
2023-03-15T05:33:31.380Z,102061.50
2023-03-15T05:36:41.743Z,102060.13
2023-03-15T05:39:47.316Z,102058.44
2023-03-15T05:42:40.264Z,102056.53
2023-03-15T05:45:56.051Z,102057.16
2023-03-15T05:49:07.647Z,102069.16
2023-03-15T05:51:59.470Z,102071.22
2023-03-15T05:55:02.665Z,102068.25
2023-03-15T05:58:05.608Z,102085.66
2023-03-15T06:01:05.455Z,102070.84
2023-03-15T06:04:17.231Z,102085.19
2023-03-15T06:07:05.030Z,102089.53
2023-03-15T06:09:53.121Z,102091.00
2023-03-15T06:12:39.666Z,102084.53
2023-03-15T06:15:26.257Z,102095.44
2023-03-15T06:18:17.237Z,102091.66
2023-03-15T06:21:03.680Z,102086.97
2023-03-15T06:23:50.653Z,102090.53
2023-03-15T06:26:37.985Z,102083.88
2023-03-15T06:29:25.962Z,102074.44
2023-03-15T06:32:14.372Z,102088.91
2023-03-15T06:35:04.821Z,102081.88
2023-03-15T06:37:52.944Z,102096.94
2023-03-15T06:40:39.410Z,102088.22
2023-03-15T06:43:26.553Z,102082.31
2023-03-15T06:46:12.827Z,102093.25
2023-03-15T06:48:59.934Z,102096.66
2023-03-15T06:51:48.455Z,102104.25
2023-03-15T06:54:35.336Z,102089.91
2023-03-15T06:57:21.690Z,102087.78
2023-03-15T07:00:12.095Z,102088.84
2023-03-15T07:02:58.828Z,102090.91
2023-03-15T07:05:46.450Z,102093.34
2023-03-15T07:08:34.625Z,102091.53
2023-03-15T07:11:20.992Z,102084.88
2023-03-15T07:14:07.762Z,102077.41
2023-03-15T07:16:54.092Z,102072.34
2023-03-15T07:19:50.268Z,102061.97
2023-03-15T07:22:45.478Z,102052.94
2023-03-15T07:25:35.941Z,102037.91
2023-03-15T07:28:29.098Z,102041.47
2023-03-15T07:31:15.912Z,102037.03
2023-03-15T07:34:02.144Z,102019.94
2023-03-15T07:36:48.715Z,102011.19
2023-03-15T07:39:35.302Z,101979.03
2023-03-15T07:42:22.759Z,101966.22
2023-03-15T07:45:12.471Z,101932.59
2023-03-15T07:47:59.081Z,101927.28
2023-03-15T07:50:46.761Z,101900.97
2023-03-15T07:53:33.192Z,101891.28
2023-03-15T07:56:19.940Z,101888.47
2023-03-15T07:59:07.539Z,101870.63
2023-03-15T08:01:54.016Z,101880.63
2023-03-15T08:04:41.065Z,101874.34
2023-03-15T08:07:27.419Z,101857.13
2023-03-15T08:10:14.177Z,101824.94
2023-03-15T08:13:00.537Z,101795.06
2023-03-15T08:15:48.521Z,101750.06
2023-03-15T08:18:34.697Z,101724.78
2023-03-15T08:21:21.343Z,101704.66
2023-03-15T08:24:07.568Z,101688.81
2023-03-15T08:26:54.017Z,101649.72
2023-03-15T08:29:40.445Z,101634.44
2023-03-15T08:32:28.141Z,101615.06
2023-03-15T08:35:17.316Z,101608.91
2023-03-15T08:38:03.921Z,101604.28
2023-03-15T08:40:50.271Z,101595.69
2023-03-15T08:43:36.669Z,101582.91
2023-03-15T08:46:23.108Z,101580.25
2023-03-15T08:49:10.860Z,101564.25
2023-03-15T08:51:57.552Z,101564.94
2023-03-15T08:54:43.659Z,101545.69
2023-03-15T08:57:32.779Z,101539.19
2023-03-15T09:00:20.729Z,101525.59
2023-03-15T09:03:07.453Z,101512.28
2023-03-15T09:05:58.476Z,101502.41
2023-03-15T09:08:44.681Z,101489.41
2023-03-15T09:11:31.245Z,101493.41
2023-03-15T09:14:18.168Z,101494.25
2023-03-15T09:17:04.818Z,101498.38
2023-03-15T09:19:52.410Z,101500.22
2023-03-15T09:22:40.520Z,101485.69
2023-03-15T09:25:27.373Z,101485.66
2023-03-15T09:28:13.965Z,101480.44
2023-03-15T09:31:01.223Z,101480.06
2023-03-15T09:33:47.622Z,101469.47
2023-03-15T09:36:34.137Z,101462.09
2023-03-15T09:39:23.411Z,101464.81
2023-03-15T09:42:16.459Z,101460.00
2023-03-15T09:45:14.111Z,101466.69
2023-03-15T09:48:06.889Z,101461.13
2023-03-15T09:50:56.702Z,101462.78
2023-03-15T09:53:50.228Z,101466.22
2023-03-15T09:56:45.518Z,101452.88
2023-03-15T09:59:35.514Z,101450.88
2023-03-15T10:02:25.930Z,101467.81
2023-03-15T10:05:19.924Z,101460.03
2023-03-15T10:08:11.527Z,101463.13
2023-03-15T10:11:07.913Z,101457.41
2023-03-15T10:14:06.402Z,101459.00
2023-03-15T10:16:54.909Z,101456.97
2023-03-15T10:19:49.720Z,101461.47
2023-03-15T10:22:41.815Z,101462.00
2023-03-15T10:25:30.699Z,101477.84
2023-03-15T10:28:25.481Z,101473.25
2023-03-15T10:31:22.612Z,101478.28
2023-03-15T10:34:12.675Z,101484.31
2023-03-15T10:36:59.259Z,101486.97
2023-03-15T10:39:48.862Z,101489.75
2023-03-15T10:42:35.289Z,101491.63
2023-03-15T10:45:23.690Z,101479.84
2023-03-15T10:48:19.317Z,101499.44
2023-03-15T10:51:07.959Z,101502.22
2023-03-15T10:54:00.093Z,101511.28
2023-03-15T10:56:53.003Z,101515.94
2023-03-15T10:59:56.347Z,101524.84
2023-03-15T11:02:54.080Z,101512.66
2023-03-15T11:05:44.475Z,101528.19
2023-03-15T11:08:39.129Z,101536.94
2023-03-15T11:11:25.371Z,101550.47
2023-03-15T11:14:15.022Z,101568.88
2023-03-15T11:17:02.056Z,101579.72
2023-03-15T11:19:56.676Z,101581.56
2023-03-15T11:22:44.788Z,101570.34
2023-03-15T11:25:34.808Z,101566.47
2023-03-15T11:28:32.124Z,101570.69
2023-03-15T11:31:22.632Z,101572.16
2023-03-15T11:34:17.545Z,101591.97
2023-03-15T11:37:13.292Z,101591.34
2023-03-15T11:40:12.252Z,101586.41
2023-03-15T11:43:09.605Z,101578.00
2023-03-15T11:46:01.628Z,101594.41
2023-03-15T11:49:02.347Z,101592.78
2023-03-15T11:53:04.356Z,101607.41
2023-03-15T12:01:03.190Z,101654.38
2023-03-15T12:08:26.153Z,101680.53
2023-03-15T12:11:13.984Z,101699.47
2023-03-15T12:14:06.725Z,101724.84
2023-03-15T12:17:13.962Z,101707.00
2023-03-15T12:20:03.712Z,101750.84
2023-03-15T12:22:53.051Z,101770.72
2023-03-15T12:25:54.706Z,101779.34
2023-03-15T12:28:50.580Z,101799.63
2023-03-15T12:32:10.725Z,101791.84
2023-03-15T12:34:59.244Z,101787.28
2023-03-15T12:37:47.358Z,101795.56
2023-03-15T12:40:48.750Z,101798.72
2023-03-15T12:43:41.164Z,101812.53
2023-03-15T12:46:59.273Z,101827.06
2023-03-15T12:49:48.099Z,101830.44
2023-03-15T12:52:43.996Z,101819.41
2023-03-15T12:55:34.543Z,101825.88
2023-03-15T12:58:22.895Z,101824.97
2023-03-15T13:01:18.727Z,101824.41
2023-03-15T13:04:05.570Z,101831.13
2023-03-15T13:07:21.142Z,101833.66
2023-03-15T13:10:31.132Z,101834.63
2023-03-15T13:13:32.974Z,101830.28
2023-03-15T13:16:28.494Z,101829.91
2023-03-15T13:19:19.992Z,101824.03
2023-03-15T13:22:17.379Z,101808.56
2023-03-15T13:25:11.502Z,101817.16
2023-03-15T13:28:06.912Z,101819.13
2023-03-15T13:30:55.637Z,101821.91
2023-03-15T13:33:43.421Z,101837.78
2023-03-15T13:36:42.144Z,101839.97
2023-03-15T13:39:33.191Z,101833.56
2023-03-15T13:42:24.757Z,101844.63
2023-03-15T13:45:14.202Z,101850.03
2023-03-15T13:48:05.403Z,101842.00
2023-03-15T13:50:54.471Z,101840.13
2023-03-15T13:53:49.445Z,101845.94
2023-03-15T13:56:49.732Z,101850.72
2023-03-15T13:59:41.024Z,101846.44
2023-03-15T14:02:36.592Z,101845.72
2023-03-15T14:05:29.134Z,101851.63
2023-03-15T14:08:23.776Z,101841.84
2023-03-15T14:11:18.047Z,101843.25
2023-03-15T14:14:24.142Z,101847.84
2023-03-15T14:17:29.196Z,101850.78
2023-03-15T14:20:19.302Z,101855.06
2023-03-15T14:23:07.771Z,101857.22
2023-03-15T14:25:56.965Z,101857.78
2023-03-15T14:28:49.178Z,101855.28
2023-03-15T14:31:41.381Z,101862.66
2023-03-15T14:34:34.262Z,101860.19
2023-03-15T14:37:31.050Z,101857.78
2023-03-15T14:40:21.046Z,101850.47
2023-03-15T14:43:09.422Z,101856.25
2023-03-15T14:45:55.674Z,101849.97
2023-03-15T14:48:43.846Z,101845.19
2023-03-15T14:51:30.691Z,101838.00
2023-03-15T14:54:18.208Z,101846.13
2023-03-15T14:57:04.933Z,101844.47
2023-03-15T14:59:51.460Z,101848.47
2023-03-15T15:02:38.602Z,101843.00
2023-03-15T15:05:28.588Z,101832.06
2023-03-15T15:08:17.399Z,101830.91
2023-03-15T15:11:03.781Z,101832.78
2023-03-15T15:13:51.707Z,101827.41
2023-03-15T15:16:38.168Z,101826.97
2023-03-15T15:19:24.932Z,101822.75
2023-03-15T15:22:12.786Z,101826.44
2023-03-15T15:24:58.990Z,101825.53
2023-03-15T15:27:46.237Z,101822.63
2023-03-15T15:30:32.622Z,101820.59
2023-03-15T15:33:19.400Z,101821.56
2023-03-15T15:36:12.373Z,101815.25
2023-03-15T15:39:06.471Z,101813.63
2023-03-15T15:41:54.355Z,101814.25
2023-03-15T15:44:40.904Z,101806.47
2023-03-15T15:47:27.604Z,101808.09
2023-03-15T15:50:17.991Z,101805.34
2023-03-15T15:53:06.731Z,101801.53
2023-03-15T15:55:54.365Z,101800.59
2023-03-15T15:58:41.702Z,101792.34
2023-03-15T16:01:28.225Z,101794.97
2023-03-15T16:04:14.723Z,101796.97
2023-03-15T16:07:04.297Z,101797.06
2023-03-15T16:09:56.333Z,101795.56
2023-03-15T16:12:44.143Z,101789.94
2023-03-15T16:15:31.033Z,101798.88
2023-03-15T16:18:17.437Z,101795.34
2023-03-15T16:21:04.140Z,101796.22
2023-03-15T16:23:56.840Z,101798.13
2023-03-15T16:26:46.402Z,101791.97
2023-03-15T16:29:38.707Z,101792.75
2023-03-15T16:32:42.939Z,101801.19
2023-03-15T16:35:33.927Z,101804.34
2023-03-15T16:38:24.578Z,101797.88
2023-03-15T16:41:13.992Z,101793.09
2023-03-15T16:44:01.319Z,101801.53
2023-03-15T16:46:49.821Z,101796.38
2023-03-15T16:49:36.131Z,101798.25
2023-03-15T16:52:22.769Z,101798.00
2023-03-15T16:55:12.166Z,101804.94
2023-03-15T16:57:59.420Z,101799.75
2023-03-15T17:00:48.582Z,101796.41
2023-03-15T17:03:36.912Z,101794.41
2023-03-15T17:06:24.854Z,101796.78
2023-03-15T17:09:15.283Z,101794.13
2023-03-15T17:12:01.962Z,101806.72
2023-03-15T17:14:48.701Z,101792.97
2023-03-15T17:17:36.096Z,101795.69
2023-03-15T17:20:28.524Z,101796.97
2023-03-15T17:23:15.097Z,101790.63
2023-03-15T17:26:01.644Z,101790.66
2023-03-15T17:28:48.630Z,101785.97
2023-03-15T17:31:36.942Z,101786.56
2023-03-15T17:34:23.756Z,101786.44
2023-03-15T17:37:12.214Z,101787.72
2023-03-15T17:39:59.489Z,101781.47
2023-03-15T17:42:46.060Z,101779.47
2023-03-15T17:45:33.981Z,101778.78
2023-03-15T17:48:21.031Z,101774.53
2023-03-15T17:51:07.963Z,101777.94
2023-03-15T17:53:57.295Z,101768.56
2023-03-15T17:56:43.933Z,101769.16
2023-03-15T17:59:30.869Z,101779.19
2023-03-15T18:02:17.343Z,101773.53
2023-03-15T18:05:04.312Z,101771.69
2023-03-15T18:07:58.658Z,101767.56
2023-03-15T18:10:48.901Z,101752.53
2023-03-15T18:13:36.263Z,101758.63
2023-03-15T18:16:26.619Z,101754.06
2023-03-15T18:19:13.593Z,101740.47
2023-03-15T18:22:12.636Z,101736.78
2023-03-15T18:25:02.693Z,101731.53
2023-03-15T18:27:51.679Z,101729.38
2023-03-15T18:30:38.223Z,101728.97
2023-03-15T18:33:24.677Z,101712.66
2023-03-15T18:36:11.888Z,101706.84
2023-03-15T18:38:58.595Z,101706.31
2023-03-15T18:41:45.579Z,101699.22
2023-03-15T18:44:33.961Z,101709.84
2023-03-15T18:47:20.679Z,101694.25
2023-03-15T18:50:10.534Z,101700.63
2023-03-15T18:53:05.004Z,101709.25
2023-03-15T18:55:55.612Z,101710.84
2023-03-15T18:58:46.397Z,101715.06
2023-03-15T19:01:34.494Z,101701.19
2023-03-15T19:04:34.197Z,101704.31
2023-03-15T19:07:31.138Z,101695.25
2023-03-15T19:10:19.633Z,101682.75
2023-03-15T19:13:06.309Z,101673.59
2023-03-15T19:15:54.913Z,101674.41
2023-03-15T19:18:43.754Z,101673.28
2023-03-15T19:21:30.357Z,101666.63
2023-03-15T19:24:17.046Z,101670.59
2023-03-15T19:27:04.212Z,101679.41
2023-03-15T19:29:50.865Z,101670.19
2023-03-15T19:32:37.842Z,101662.81
2023-03-15T19:35:26.841Z,101653.19
2023-03-15T19:38:13.402Z,101657.00
2023-03-15T19:41:04.531Z,101646.94
2023-03-15T19:43:55.219Z,101648.94
2023-03-15T19:46:41.650Z,101637.47
2023-03-15T19:49:28.367Z,101633.78
2023-03-15T19:52:16.298Z,101615.94
2023-03-15T19:55:03.654Z,101614.78
2023-03-15T19:57:50.112Z,101595.97
2023-03-15T20:00:36.964Z,101587.63
2023-03-15T20:03:25.554Z,101567.94
2023-03-15T20:06:14.200Z,101549.84
2023-03-15T20:09:02.959Z,101551.94
2023-03-15T20:11:50.246Z,101533.97
2023-03-15T20:14:36.963Z,101518.28
2023-03-15T20:17:23.686Z,101503.56
2023-03-15T20:20:13.215Z,101498.03
2023-03-15T20:23:00.028Z,101495.19
2023-03-15T20:25:48.682Z,101477.06
2023-03-15T20:28:37.715Z,101472.84
2023-03-15T20:31:24.264Z,101461.94
2023-03-15T20:34:12.114Z,101467.91
2023-03-15T20:36:58.890Z,101453.75
2023-03-15T20:39:45.344Z,101450.91
2023-03-15T20:42:36.244Z,101453.75
2023-03-15T20:45:32.421Z,101437.63
2023-03-15T20:48:22.150Z,101443.69
2023-03-15T20:51:08.953Z,101441.00
2023-03-15T20:53:56.081Z,101441.28
2023-03-15T20:56:44.623Z,101434.91
2023-03-15T20:59:34.429Z,101425.47
2023-03-15T21:02:22.397Z,101423.63
2023-03-15T21:05:09.919Z,101425.31
2023-03-15T21:07:56.476Z,101424.75
2023-03-15T21:10:44.404Z,101425.31
2023-03-15T21:18:25.401Z,101417.81
2023-03-15T21:21:12.847Z,101416.41
2023-03-15T21:24:07.220Z,101415.69
2023-03-15T21:26:56.189Z,101410.44
2023-03-15T21:29:42.885Z,101400.72
2023-03-15T21:32:31.169Z,101402.84
2023-03-15T21:35:22.103Z,101397.28
2023-03-15T21:38:08.645Z,101385.97
2023-03-15T21:40:58.707Z,101378.91
2023-03-15T21:43:45.304Z,101390.66
2023-03-15T21:46:31.876Z,101390.06
2023-03-15T21:49:18.249Z,101384.56
2023-03-15T21:52:05.966Z,101385.84
2023-03-15T21:54:52.444Z,101374.53
2023-03-15T21:57:38.809Z,101362.09
2023-03-15T22:00:26.692Z,101353.72
2023-03-15T22:03:14.070Z,101351.06
2023-03-15T22:06:00.453Z,101351.34
2023-03-15T22:08:48.595Z,101366.22
2023-03-15T22:11:34.757Z,101356.03
2023-03-15T22:14:21.789Z,101354.75
2023-03-15T22:17:08.402Z,101359.97
2023-03-15T22:19:55.102Z,101358.16
2023-03-15T22:22:41.671Z,101353.34
2023-03-15T22:25:29.532Z,101352.34
2023-03-15T22:28:16.367Z,101355.88
2023-03-15T22:31:02.559Z,101349.66
2023-03-15T22:33:49.324Z,101338.34
2023-03-15T22:36:36.549Z,101344.28
2023-03-15T22:39:23.045Z,101330.56
2023-03-15T22:42:10.865Z,101333.69
2023-03-15T22:44:57.599Z,101332.25
2023-03-15T22:47:44.116Z,101326.75
2023-03-15T22:50:30.536Z,101330.97
2023-03-15T22:53:18.828Z,101331.13
2023-03-15T22:56:06.415Z,101335.94
2023-03-15T22:58:55.502Z,101331.69
2023-03-15T23:01:42.277Z,101327.47
2023-03-15T23:04:28.682Z,101327.47
2023-03-15T23:07:15.118Z,101322.94
2023-03-15T23:10:01.575Z,101314.47
2023-03-15T23:12:48.267Z,101305.28
2023-03-15T23:15:35.958Z,101310.22
2023-03-15T23:18:25.341Z,101320.81
2023-03-15T23:21:13.538Z,101324.78
2023-03-15T23:23:59.962Z,101318.72
2023-03-15T23:26:46.602Z,101318.00
2023-03-15T23:29:40.675Z,101315.47
2023-03-15T23:32:36.368Z,101301.28
2023-03-15T23:35:22.794Z,101310.63
2023-03-15T23:38:09.447Z,101294.53
2023-03-15T23:40:56.070Z,101293.97
2023-03-15T23:43:42.564Z,101288.31
2023-03-15T23:46:29.536Z,101287.19
2023-03-15T23:49:17.446Z,101290.72
2023-03-15T23:52:05.655Z,101306.09
2023-03-15T23:54:53.823Z,101291.28
2023-03-15T23:57:40.536Z,101296.91
